Time;durP1;ratioP1;P1;durP2;ratioP2;P2;SDS_P1;SDS_P2;PMS_P1;PMS_P2;Temp;Humidity;BMP_temperature;BMP_pressure;BME280_temperature;BME280_humidity;BME280_pressure;Samples;Min_cycle;Max_cycle;Signal;HPM_P1;HPM_P2
2023/06/30 00:02:13;;;;;;;5.90;5.30;;;25.00;67.20;;;;;;5111392;28;20767;-71
2023/06/30 00:04:39;;;;;;;7.07;5.57;;;25.00;67.30;;;;;;5109878;28;20342;-71
2023/06/30 00:07:08;;;;;;;7.50;5.63;;;24.90;67.20;;;;;;5099572;28;20220;-71
2023/06/30 00:09:35;;;;;;;6.07;5.47;;;24.90;67.00;;;;;;5101692;28;20210;-70
2023/06/30 00:12:02;;;;;;;6.30;5.67;;;24.90;67.00;;;;;;5092320;28;20234;-70
2023/06/30 00:14:29;;;;;;;5.70;5.20;;;24.90;67.40;;;;;;5094509;28;20209;-71
2023/06/30 00:16:57;;;;;;;6.70;5.80;;;24.90;67.40;;;;;;5096161;28;20595;-71
2023/06/30 00:19:26;;;;;;;6.53;5.43;;;24.90;67.40;;;;;;5100861;28;20227;-72
2023/06/30 00:21:53;;;;;;;6.80;6.10;;;24.90;67.40;;;;;;5110768;28;20282;-70
2023/06/30 00:24:20;;;;;;;6.20;5.60;;;24.90;67.40;;;;;;5107997;28;20227;-70
2023/06/30 00:26:47;;;;;;;5.77;5.17;;;24.90;67.40;;;;;;5109086;28;20583;-70
2023/06/30 00:29:14;;;;;;;7.07;5.10;;;24.80;67.60;;;;;;5098353;28;20195;-71
2023/06/30 00:31:41;;;;;;;6.70;5.97;;;24.80;67.50;;;;;;5112937;27;20219;-71
2023/06/30 00:34:09;;;;;;;5.93;5.17;;;24.80;67.70;;;;;;5098619;28;20612;-71
2023/06/30 00:36:35;;;;;;;5.67;5.17;;;24.80;67.70;;;;;;5110160;28;20207;-70
2023/06/30 00:39:02;;;;;;;7.00;5.60;;;24.70;67.70;;;;;;5112607;28;20250;-70
2023/06/30 00:41:32;;;;;;;5.60;5.10;;;24.70;67.60;;;;;;5112222;28;20215;-70
2023/06/30 00:43:59;;;;;;;6.90;5.67;;;24.70;67.70;;;;;;5099521;28;20218;-70
2023/06/30 00:46:26;;;;;;;5.70;5.10;;;24.70;67.70;;;;;;5109075;28;20207;-72
2023/06/30 00:48:53;;;;;;;5.67;5.17;;;24.70;67.90;;;;;;5112430;28;20223;-70
2023/06/30 00:51:21;;;;;;;7.77;5.30;;;24.70;68.00;;;;;;5112094;28;20238;-71
2023/06/30 00:53:48;;;;;;;6.00;5.40;;;24.70;68.90;;;;;;5112537;28;20224;-70
2023/06/30 00:56:15;;;;;;;5.50;4.80;;;24.70;68.10;;;;;;5110210;28;20192;-70
2023/06/30 00:58:43;;;;;;;5.67;5.13;;;24.70;68.20;;;;;;5102599;28;20223;-70
2023/06/30 01:01:15;;;;;;;6.13;5.53;;;24.70;68.30;;;;;;5104967;28;20454;-69
2023/06/30 01:03:45;;;;;;;6.40;5.50;;;24.70;69.10;;;;;;5091904;28;20202;-70
2023/06/30 01:06:21;;;;;;;6.90;5.60;;;24.60;68.10;;;;;;5106384;28;20208;-69
2023/06/30 01:08:56;;;;;;;6.43;5.73;;;24.60;68.10;;;;;;5103988;28;20203;-70
2023/06/30 01:11:24;;;;;;;6.83;5.50;;;24.60;68.30;;;;;;5109739;28;20226;-70
2023/06/30 01:13:51;;;;;;;8.70;5.87;;;24.60;68.10;;;;;;5093416;28;20207;-70
2023/06/30 01:16:20;;;;;;;5.40;4.90;;;24.60;68.00;;;;;;5109882;28;20845;-71
2023/06/30 01:18:52;;;;;;;5.97;5.40;;;24.50;68.00;;;;;;5101412;28;20692;-71
2023/06/30 01:21:22;;;;;;;6.67;5.20;;;24.50;68.00;;;;;;5091531;28;20208;-70
2023/06/30 01:23:54;;;;;;;8.23;5.13;;;24.50;68.20;;;;;;5092642;28;20215;-71
2023/06/30 01:26:21;;;;;;;6.63;5.60;;;24.50;68.30;;;;;;5101831;28;20188;-70
2023/06/30 01:28:50;;;;;;;6.83;5.57;;;24.40;68.20;;;;;;5109149;28;20257;-71
2023/06/30 01:31:18;;;;;;;6.60;5.40;;;24.40;68.40;;;;;;5117125;27;20351;-70
2023/06/30 01:33:45;;;;;;;8.47;5.27;;;24.40;68.50;;;;;;5106247;28;20203;-71
2023/06/30 01:36:12;;;;;;;6.87;5.63;;;24.40;68.80;;;;;;5102467;28;20832;-70
2023/06/30 01:38:38;;;;;;;6.23;5.40;;;24.40;68.60;;;;;;5095242;28;20235;-71
2023/06/30 01:41:08;;;;;;;7.47;5.60;;;24.40;68.80;;;;;;5090879;28;20676;-70
2023/06/30 01:43:36;;;;;;;6.17;5.57;;;24.40;68.90;;;;;;5109458;28;20686;-71
2023/06/30 01:46:04;;;;;;;5.70;5.10;;;24.30;68.70;;;;;;5111794;28;20563;-71
2023/06/30 01:48:31;;;;;;;5.57;5.07;;;24.30;68.80;;;;;;5097036;28;20654;-70
2023/06/30 01:50:59;;;;;;;6.23;5.63;;;24.30;68.80;;;;;;5091190;28;20230;-70
2023/06/30 01:53:26;;;;;;;6.60;5.53;;;24.30;68.90;;;;;;5091213;28;20212;-71
2023/06/30 01:55:55;;;;;;;6.43;5.60;;;24.30;68.90;;;;;;5104567;28;20195;-71
2023/06/30 01:58:23;;;;;;;5.97;5.07;;;24.30;68.90;;;;;;5093938;28;20231;-71
2023/06/30 02:00:50;;;;;;;6.53;5.83;;;24.30;69.20;;;;;;5102348;28;20295;-70
2023/06/30 02:03:17;;;;;;;6.23;5.20;;;24.30;69.30;;;;;;5110389;28;20209;-71
2023/06/30 02:05:44;;;;;;;6.47;5.77;;;24.30;69.30;;;;;;5090860;28;20203;-70
2023/06/30 02:08:11;;;;;;;7.90;6.07;;;24.30;69.30;;;;;;5092438;28;20684;-71
2023/06/30 02:10:38;;;;;;;7.77;5.50;;;24.30;69.40;;;;;;5090443;28;20226;-71
2023/06/30 02:13:04;;;;;;;7.53;5.60;;;24.30;69.50;;;;;;5054580;28;20224;-71
2023/06/30 02:15:33;;;;;;;6.20;5.53;;;24.30;69.50;;;;;;5090515;28;20544;-71
2023/06/30 02:18:00;;;;;;;6.20;5.60;;;24.30;69.50;;;;;;5093533;28;20222;-71
2023/06/30 02:20:26;;;;;;;5.87;5.13;;;24.30;69.60;;;;;;5101970;28;20221;-70
2023/06/30 02:22:53;;;;;;;6.33;5.70;;;24.30;69.70;;;;;;5098507;28;20199;-71
2023/06/30 02:25:21;;;;;;;5.93;5.27;;;24.30;69.90;;;;;;5104620;27;20195;-70
2023/06/30 02:27:48;;;;;;;5.97;5.37;;;24.30;70.00;;;;;;5107148;28;20224;-70
2023/06/30 02:30:15;;;;;;;6.20;4.93;;;24.30;70.10;;;;;;5110735;28;20203;-70
2023/06/30 02:32:44;;;;;;;7.17;5.80;;;24.30;70.20;;;;;;5097309;28;20200;-70
2023/06/30 02:35:10;;;;;;;6.47;5.73;;;24.30;70.20;;;;;;5098950;28;20260;-70
2023/06/30 02:37:37;;;;;;;7.10;6.23;;;24.30;69.70;;;;;;5109925;28;20257;-70
2023/06/30 02:40:05;;;;;;;7.43;6.40;;;24.30;69.90;;;;;;5094496;28;20229;-70
2023/06/30 02:42:32;;;;;;;6.90;5.97;;;24.40;69.80;;;;;;5100522;28;20573;-69
2023/06/30 02:44:59;;;;;;;6.10;5.50;;;24.40;69.90;;;;;;5114991;28;20211;-69
2023/06/30 02:47:26;;;;;;;6.90;6.20;;;24.40;70.00;;;;;;5110903;28;20220;-70
2023/06/30 02:49:54;;;;;;;6.73;6.13;;;24.30;69.90;;;;;;5094346;28;20203;-70
2023/06/30 02:52:21;;;;;;;7.37;5.80;;;24.30;70.00;;;;;;5105677;28;20239;-70
2023/06/30 02:54:48;;;;;;;6.80;5.87;;;24.30;70.40;;;;;;5094427;28;20192;-70
2023/06/30 02:57:14;;;;;;;7.00;6.17;;;24.40;71.20;;;;;;5106852;28;20260;-70
2023/06/30 02:59:41;;;;;;;6.70;5.70;;;24.30;72.20;;;;;;5104063;28;20226;-71
2023/06/30 03:02:08;;;;;;;8.70;7.10;;;24.30;72.90;;;;;;5105039;28;20234;-70
2023/06/30 03:04:35;;;;;;;8.30;7.13;;;24.30;73.90;;;;;;5104635;28;20200;-70
2023/06/30 03:07:03;;;;;;;7.07;6.37;;;24.20;73.80;;;;;;5095194;28;20204;-70
2023/06/30 03:09:30;;;;;;;8.37;7.57;;;24.10;74.10;;;;;;5103457;28;20314;-70
2023/06/30 03:11:57;;;;;;;9.23;7.67;;;24.00;74.80;;;;;;5094140;28;20209;-70
2023/06/30 03:14:24;;;;;;;9.50;6.90;;;23.90;75.20;;;;;;5099615;28;20218;-70
2023/06/30 03:16:51;;;;;;;7.93;6.53;;;23.90;75.30;;;;;;5113427;28;20227;-70
2023/06/30 03:19:17;;;;;;;7.93;6.70;;;23.90;75.50;;;;;;5102984;28;20574;-70
2023/06/30 03:21:44;;;;;;;8.40;7.60;;;23.90;75.90;;;;;;5109707;28;20214;-70
2023/06/30 03:24:12;;;;;;;8.63;7.70;;;23.90;75.60;;;;;;5094447;28;20269;-69
2023/06/30 03:26:39;;;;;;;9.33;7.53;;;23.90;75.10;;;;;;5112878;28;20211;-71
2023/06/30 03:29:06;;;;;;;8.47;7.07;;;23.80;75.10;;;;;;5094572;28;20227;-71
2023/06/30 03:31:33;;;;;;;8.67;7.60;;;23.80;76.00;;;;;;5107049;28;20741;-71
2023/06/30 03:34:00;;;;;;;7.63;6.80;;;23.70;76.20;;;;;;5107489;28;20224;-69
2023/06/30 03:36:26;;;;;;;9.10;7.43;;;23.70;76.50;;;;;;5107064;28;20204;-70
2023/06/30 03:38:53;;;;;;;9.33;6.93;;;23.80;76.40;;;;;;5095198;28;20622;-70
2023/06/30 03:41:21;;;;;;;9.87;7.33;;;23.70;77.00;;;;;;5093278;28;20200;-70
2023/06/30 03:43:48;;;;;;;8.13;7.33;;;23.80;76.90;;;;;;5108631;28;20220;-70
2023/06/30 03:46:15;;;;;;;9.47;7.30;;;23.80;76.90;;;;;;5092757;28;20204;-71
2023/06/30 03:48:42;;;;;;;8.07;6.70;;;23.80;76.90;;;;;;5105158;28;20223;-70
2023/06/30 03:51:09;;;;;;;8.83;7.93;;;23.80;77.50;;;;;;5111122;28;20196;-70
2023/06/30 03:53:36;;;;;;;9.20;8.23;;;23.80;77.80;;;;;;5100116;28;20688;-69
2023/06/30 03:56:03;;;;;;;9.63;8.43;;;23.80;77.90;;;;;;5110279;28;20246;-70
2023/06/30 03:58:31;;;;;;;8.73;7.93;;;23.80;78.20;;;;;;5057625;28;20657;-71
2023/06/30 04:00:57;;;;;;;11.13;8.37;;;23.80;78.70;;;;;;5101435;28;20744;-69
2023/06/30 04:03:24;;;;;;;9.00;8.10;;;23.80;79.00;;;;;;5112184;28;20202;-69
2023/06/30 04:05:51;;;;;;;9.73;8.73;;;23.80;79.40;;;;;;5105325;28;20224;-71
2023/06/30 04:08:18;;;;;;;11.43;9.00;;;23.90;80.10;;;;;;5093004;28;20231;-69
2023/06/30 04:10:45;;;;;;;9.67;7.83;;;23.80;80.00;;;;;;5104969;28;20609;-71
2023/06/30 04:13:12;;;;;;;9.23;8.23;;;23.80;80.00;;;;;;5112743;28;20245;-70
2023/06/30 04:15:40;;;;;;;9.03;7.83;;;23.80;80.50;;;;;;5112007;28;20211;-70
2023/06/30 04:18:07;;;;;;;11.17;8.27;;;23.90;80.90;;;;;;5105358;28;20204;-70
2023/06/30 04:20:34;;;;;;;10.33;9.23;;;23.90;80.60;;;;;;5095054;28;20614;-70
2023/06/30 04:23:01;;;;;;;8.63;7.73;;;23.90;80.40;;;;;;5093340;28;20211;-71
2023/06/30 04:25:27;;;;;;;9.23;7.73;;;23.90;81.30;;;;;;5099629;28;20301;-70
2023/06/30 04:27:54;;;;;;;10.40;8.23;;;23.90;80.40;;;;;;5097412;28;20207;-70
2023/06/30 04:30:21;;;;;;;9.33;8.33;;;24.00;81.20;;;;;;5108009;28;20222;-71
2023/06/30 04:32:49;;;;;;;10.50;8.40;;;24.00;80.30;;;;;;5104139;28;20219;-72
2023/06/30 04:35:16;;;;;;;9.97;8.97;;;24.00;80.60;;;;;;5112441;28;20318;-71
2023/06/30 04:37:44;;;;;;;10.70;8.73;;;24.00;81.00;;;;;;5106502;28;20207;-71
2023/06/30 04:40:11;;;;;;;8.47;7.40;;;24.10;81.10;;;;;;5093002;28;20209;-70
2023/06/30 04:42:38;;;;;;;9.77;8.53;;;24.10;81.10;;;;;;5098729;28;20242;-72
2023/06/30 04:45:06;;;;;;;9.37;7.50;;;24.10;81.30;;;;;;5107432;28;20201;-70
2023/06/30 04:47:33;;;;;;;9.40;8.50;;;24.10;81.20;;;;;;5094051;28;20247;-70
2023/06/30 04:50:01;;;;;;;12.57;9.53;;;24.10;81.00;;;;;;5112210;28;20211;-70
2023/06/30 04:52:28;;;;;;;13.07;10.07;;;24.10;80.90;;;;;;5112298;28;20294;-70
2023/06/30 04:54:56;;;;;;;9.73;8.70;;;24.00;80.70;;;;;;5112391;27;20230;-70
2023/06/30 04:57:23;;;;;;;9.50;8.50;;;23.90;81.60;;;;;;5112152;27;20203;-71
2023/06/30 04:59:51;;;;;;;9.67;8.67;;;23.80;81.40;;;;;;5103777;28;20705;-71
2023/06/30 05:02:18;;;;;;;10.83;9.73;;;23.70;81.80;;;;;;5109498;28;20539;-69
2023/06/30 05:04:45;;;;;;;10.57;9.47;;;23.60;81.90;;;;;;5111030;28;20651;-69
2023/06/30 05:07:13;;;;;;;10.73;9.60;;;23.60;82.00;;;;;;5101307;28;20216;-69
2023/06/30 05:09:40;;;;;;;11.00;8.70;;;23.60;82.00;;;;;;5098647;28;20877;-70
2023/06/30 05:12:08;;;;;;;9.30;8.40;;;23.60;82.00;;;;;;5106179;28;20195;-71
2023/06/30 05:14:34;;;;;;;10.50;9.40;;;23.60;82.40;;;;;;5111093;28;20226;-71
2023/06/30 05:17:01;;;;;;;11.80;9.47;;;23.70;82.20;;;;;;5102803;28;20287;-71
2023/06/30 05:19:28;;;;;;;10.43;9.33;;;23.80;82.40;;;;;;5097499;28;20199;-70
2023/06/30 05:21:55;;;;;;;13.13;10.53;;;23.80;82.20;;;;;;5090760;28;20657;-71
2023/06/30 05:24:23;;;;;;;11.17;10.07;;;23.80;82.60;;;;;;5095147;28;20230;-72
2023/06/30 05:26:50;;;;;;;11.80;10.67;;;23.90;82.30;;;;;;5092254;28;20193;-71
2023/06/30 05:29:17;;;;;;;10.37;9.27;;;23.90;82.30;;;;;;5097973;28;20224;-71
2023/06/30 05:31:43;;;;;;;13.23;9.87;;;23.90;82.50;;;;;;5091349;28;20204;-73
2023/06/30 05:34:15;;;;;;;11.07;9.63;;;24.00;83.20;;;;;;5109053;28;20204;-72
2023/06/30 05:36:43;;;;;;;9.27;8.37;;;24.00;83.80;;;;;;5107218;28;20196;-71
2023/06/30 05:39:10;;;;;;;10.47;8.67;;;24.10;83.80;;;;;;5093371;28;20230;-73
2023/06/30 05:41:38;;;;;;;10.87;9.77;;;24.10;83.80;;;;;;5102911;28;20220;-72
2023/06/30 05:44:06;;;;;;;10.20;9.20;;;24.10;84.00;;;;;;5092381;28;20207;-74
2023/06/30 05:46:34;;;;;;;10.20;9.27;;;24.20;83.50;;;;;;5103127;28;20538;-73
2023/06/30 05:49:02;;;;;;;10.43;9.63;;;24.30;83.10;;;;;;5104622;28;20216;-74
2023/06/30 05:51:29;;;;;;;11.27;9.13;;;24.20;83.30;;;;;;5092448;28;20274;-75
2023/06/30 05:53:55;;;;;;;10.77;9.70;;;24.30;82.60;;;;;;5096042;28;20287;-74
2023/06/30 05:56:22;;;;;;;10.00;9.10;;;24.30;82.20;;;;;;5090356;28;20594;-74
2023/06/30 05:58:50;;;;;;;10.80;9.63;;;24.30;82.00;;;;;;5089606;28;20798;-73
2023/06/30 06:01:17;;;;;;;10.00;9.03;;;24.30;81.40;;;;;;5094165;28;20224;-73
2023/06/30 06:03:44;;;;;;;9.50;8.53;;;24.40;81.30;;;;;;5095146;28;20200;-72
2023/06/30 06:06:11;;;;;;;9.17;8.30;;;24.40;81.20;;;;;;5114814;28;20662;-74
2023/06/30 06:08:41;;;;;;;9.67;8.80;;;24.40;80.90;;;;;;5107528;28;20231;-72
2023/06/30 06:11:07;;;;;;;10.10;9.10;;;24.40;80.90;;;;;;5097017;28;20204;-73
2023/06/30 06:13:35;;;;;;;9.97;9.07;;;24.40;81.70;;;;;;5107502;28;20205;-73
2023/06/30 06:16:05;;;;;;;9.77;8.97;;;24.50;81.80;;;;;;5114391;28;20890;-72
2023/06/30 06:18:32;;;;;;;10.73;9.63;;;24.50;81.40;;;;;;5114401;28;20206;-74
2023/06/30 06:20:59;;;;;;;11.43;10.33;;;24.50;81.80;;;;;;5095121;28;20222;-72
2023/06/30 06:23:26;;;;;;;11.13;10.00;;;24.50;81.90;;;;;;5094074;28;20216;-73
2023/06/30 06:25:53;;;;;;;9.57;8.67;;;24.60;82.00;;;;;;5093962;28;20204;-72
2023/06/30 06:28:20;;;;;;;9.67;8.57;;;24.60;81.60;;;;;;5093882;28;20235;-72
2023/06/30 06:30:48;;;;;;;10.27;9.17;;;24.60;81.30;;;;;;5095084;28;20220;-74
2023/06/30 06:33:16;;;;;;;10.37;8.70;;;24.60;81.50;;;;;;5094022;28;20227;-74
2023/06/30 06:35:43;;;;;;;10.33;8.60;;;24.60;81.40;;;;;;5093668;28;20261;-73
2023/06/30 06:38:10;;;;;;;9.73;8.67;;;24.70;81.60;;;;;;5094021;28;20295;-75
2023/06/30 06:40:36;;;;;;;9.17;8.27;;;24.70;81.60;;;;;;5094736;28;20219;-73
2023/06/30 06:43:03;;;;;;;9.10;8.20;;;24.70;81.00;;;;;;5103967;28;20214;-74
2023/06/30 06:45:30;;;;;;;8.50;7.70;;;24.70;81.00;;;;;;5113785;28;20210;-74
2023/06/30 06:48:19;;;;;;;9.10;8.30;;;24.70;81.10;;;;;;5114260;28;20235;-73
2023/06/30 06:50:47;;;;;;;8.47;7.67;;;24.70;81.10;;;;;;5096991;28;20236;-74
2023/06/30 06:53:20;;;;;;;9.67;8.30;;;24.70;80.80;;;;;;5093866;28;20298;-73
2023/06/30 06:55:47;;;;;;;9.47;8.57;;;24.70;81.10;;;;;;5093551;28;20188;-73
2023/06/30 06:58:14;;;;;;;9.97;8.13;;;24.80;80.20;;;;;;5093759;28;20207;-74
2023/06/30 07:00:42;;;;;;;9.63;8.23;;;24.80;79.90;;;;;;5100718;28;20286;-74
2023/06/30 07:03:09;;;;;;;8.83;7.67;;;24.80;79.90;;;;;;5114050;28;20206;-74
2023/06/30 07:05:39;;;;;;;8.93;8.13;;;24.80;80.20;;;;;;5114106;28;20204;-73
2023/06/30 07:08:06;;;;;;;8.03;7.23;;;24.90;80.10;;;;;;5114555;28;20216;-74
2023/06/30 07:10:33;;;;;;;8.70;7.90;;;24.90;80.50;;;;;;5110060;28;20224;-72
2023/06/30 07:12:59;;;;;;;8.80;8.03;;;24.90;78.80;;;;;;5095800;28;20208;-74
2023/06/30 07:15:26;;;;;;;9.13;8.33;;;24.90;78.60;;;;;;5094488;28;20200;-73
2023/06/30 07:17:53;;;;;;;9.63;8.63;;;24.80;78.60;;;;;;5073694;28;20286;-73
2023/06/30 07:20:20;;;;;;;8.47;7.77;;;24.80;78.90;;;;;;5100564;28;20216;-72
2023/06/30 07:22:49;;;;;;;9.10;8.23;;;24.80;78.80;;;;;;5092964;28;20204;-74
2023/06/30 07:25:16;;;;;;;9.27;8.47;;;24.90;78.90;;;;;;5096163;28;20295;-74
2023/06/30 07:27:51;;;;;;;10.00;8.57;;;24.90;79.80;;;;;;5113294;28;20222;-73
2023/06/30 07:30:18;;;;;;;9.83;8.93;;;25.00;78.90;;;;;;5113518;28;20625;-74
2023/06/30 07:32:45;;;;;;;9.47;8.53;;;25.00;78.90;;;;;;5113092;28;20214;-73
2023/06/30 07:35:12;;;;;;;10.57;9.43;;;25.00;78.40;;;;;;5112816;28;20206;-74
2023/06/30 07:37:39;;;;;;;10.63;9.50;;;25.00;78.20;;;;;;5113092;28;20570;-73
2023/06/30 07:40:08;;;;;;;10.20;9.20;;;25.00;78.40;;;;;;5098506;28;20241;-73
2023/06/30 07:42:35;;;;;;;10.30;9.20;;;25.00;78.40;;;;;;5097166;28;20299;-75
2023/06/30 07:45:02;;;;;;;10.47;9.13;;;24.90;78.00;;;;;;5093500;28;20235;-74
2023/06/30 07:47:28;;;;;;;11.47;9.83;;;24.90;78.10;;;;;;5092640;28;20232;-73
2023/06/30 07:49:55;;;;;;;10.10;8.87;;;24.90;77.90;;;;;;5092572;28;20221;-74
2023/06/30 07:52:22;;;;;;;9.80;8.80;;;24.90;78.10;;;;;;5097922;28;20579;-73
2023/06/30 07:54:53;;;;;;;9.73;8.73;;;24.90;77.30;;;;;;5112772;28;20238;-73
2023/06/30 07:57:21;;;;;;;9.47;8.50;;;25.00;77.50;;;;;;5094942;28;20204;-73
2023/06/30 07:59:48;;;;;;;11.67;8.80;;;25.00;76.60;;;;;;5092510;28;20300;-74
2023/06/30 08:02:17;;;;;;;11.57;9.00;;;25.00;76.30;;;;;;5093546;28;20220;-72
2023/06/30 08:04:44;;;;;;;10.67;9.50;;;25.10;75.80;;;;;;5091948;28;20209;-75
2023/06/30 08:07:10;;;;;;;12.27;10.00;;;25.10;75.50;;;;;;5092160;28;20295;-74
2023/06/30 08:09:38;;;;;;;10.67;9.20;;;25.20;75.30;;;;;;5092149;28;20231;-74
2023/06/30 08:12:05;;;;;;;14.73;10.50;;;25.20;75.20;;;;;;5091969;28;20662;-73
2023/06/30 08:14:33;;;;;;;11.90;10.47;;;25.30;75.50;;;;;;5092067;28;20201;-74
2023/06/30 08:17:00;;;;;;;13.47;10.57;;;25.40;74.80;;;;;;5093425;28;20230;-76
2023/06/30 08:19:27;;;;;;;14.63;11.17;;;25.40;74.70;;;;;;5104374;28;20558;-74
2023/06/30 08:21:54;;;;;;;14.70;12.10;;;25.40;74.50;;;;;;5092246;28;20200;-73
2023/06/30 08:24:22;;;;;;;15.33;12.60;;;25.40;74.50;;;;;;5090213;28;20215;-73
2023/06/30 08:26:49;;;;;;;13.27;11.73;;;25.40;74.40;;;;;;5091790;28;20213;-74
2023/06/30 08:29:16;;;;;;;14.57;12.27;;;25.40;73.60;;;;;;5092971;28;20228;-74
2023/06/30 08:31:44;;;;;;;16.17;12.20;;;25.40;73.30;;;;;;5091842;28;20204;-74
2023/06/30 08:34:13;;;;;;;14.17;12.67;;;25.30;73.80;;;;;;5092441;28;20208;-74
2023/06/30 08:36:40;;;;;;;16.83;13.03;;;25.30;73.80;;;;;;5099858;28;20199;-74
2023/06/30 08:39:07;;;;;;;16.50;12.83;;;25.20;73.50;;;;;;5112485;28;20227;-74
2023/06/30 08:41:37;;;;;;;14.67;11.93;;;25.20;74.00;;;;;;5110611;27;20188;-75
2023/06/30 08:44:04;;;;;;;15.20;12.37;;;25.20;74.00;;;;;;5092684;28;20219;-75
2023/06/30 08:46:31;;;;;;;15.43;12.20;;;25.20;73.50;;;;;;5091138;28;20193;-74
2023/06/30 08:48:59;;;;;;;15.07;12.37;;;25.20;73.50;;;;;;5091615;28;20208;-74
2023/06/30 08:51:26;;;;;;;14.93;12.90;;;25.30;74.20;;;;;;5071794;28;20589;-74
2023/06/30 08:53:54;;;;;;;13.63;11.43;;;25.30;73.60;;;;;;5091275;28;20212;-74
2023/06/30 08:56:22;;;;;;;15.60;12.50;;;25.40;73.80;;;;;;5092837;28;20200;-72
2023/06/30 08:58:49;;;;;;;16.20;13.00;;;25.30;74.20;;;;;;5111775;28;20294;-75
2023/06/30 09:01:16;;;;;;;17.17;14.80;;;25.20;74.50;;;;;;5111782;28;20219;-75
2023/06/30 09:03:44;;;;;;;17.87;13.87;;;25.20;75.60;;;;;;5095470;27;20211;-76
2023/06/30 09:06:15;;;;;;;15.97;13.63;;;25.20;75.60;;;;;;5091439;28;20208;-76
2023/06/30 09:08:48;;;;;;;16.77;14.80;;;25.30;76.00;;;;;;5093098;28;20184;-76
2023/06/30 09:11:17;;;;;;;17.67;14.63;;;25.40;75.90;;;;;;5091697;28;20209;-75
2023/06/30 09:13:46;;;;;;;17.87;14.70;;;25.40;75.80;;;;;;5100556;27;20195;-74
2023/06/30 09:16:17;;;;;;;19.20;16.10;;;25.40;75.90;;;;;;5111768;28;20220;-73
2023/06/30 09:18:46;;;;;;;17.13;15.10;;;25.40;75.40;;;;;;5110022;28;20188;-75
2023/06/30 09:21:14;;;;;;;20.50;16.53;;;25.40;75.60;;;;;;5111435;28;20208;-74
2023/06/30 09:23:42;;;;;;;19.13;15.43;;;25.30;75.60;;;;;;5098910;28;20510;-75
2023/06/30 09:26:14;;;;;;;19.23;15.30;;;25.30;75.80;;;;;;5111866;28;20238;-76
2023/06/30 09:28:42;;;;;;;17.73;15.83;;;25.40;75.80;;;;;;5111565;28;20188;-76
2023/06/30 09:31:09;;;;;;;17.97;15.53;;;25.40;75.60;;;;;;5111655;28;20223;-75
2023/06/30 09:33:38;;;;;;;22.03;17.10;;;25.40;75.80;;;;;;5111637;28;20220;-75
2023/06/30 09:36:06;;;;;;;20.87;16.23;;;25.40;75.80;;;;;;5110124;28;20204;-74
2023/06/30 09:38:36;;;;;;;19.80;16.80;;;25.40;75.40;;;;;;5110614;28;20583;-75
2023/06/30 09:41:05;;;;;;;18.57;16.13;;;25.40;75.60;;;;;;5111422;28;20223;-75
2023/06/30 09:43:33;;;;;;;21.63;17.90;;;25.30;75.60;;;;;;5096367;28;20707;-75
2023/06/30 09:46:02;;;;;;;19.67;16.77;;;25.20;75.70;;;;;;5094641;28;20246;-75
2023/06/30 09:48:30;;;;;;;21.77;16.43;;;25.30;76.00;;;;;;5108938;28;20220;-76
2023/06/30 09:50:58;;;;;;;20.27;17.47;;;25.30;76.10;;;;;;5110168;28;20228;-77
2023/06/30 09:53:25;;;;;;;21.53;17.17;;;25.40;76.30;;;;;;5076201;28;20218;-77
2023/06/30 09:55:53;;;;;;;21.37;17.33;;;25.50;76.20;;;;;;5075541;28;20196;-75
2023/06/30 09:58:21;;;;;;;22.93;17.87;;;25.60;76.50;;;;;;5110901;28;20198;-75
2023/06/30 10:00:50;;;;;;;20.87;16.87;;;25.70;76.30;;;;;;5112721;28;20572;-75
2023/06/30 10:03:18;;;;;;;23.30;18.60;;;25.80;76.00;;;;;;5107275;28;20227;-75
2023/06/30 10:05:46;;;;;;;20.67;17.07;;;25.80;75.30;;;;;;5103884;28;20259;-75
2023/06/30 10:08:14;;;;;;;19.57;16.73;;;25.80;75.10;;;;;;5112195;28;20303;-76
2023/06/30 10:10:42;;;;;;;20.70;17.67;;;25.80;75.20;;;;;;5111389;28;20225;-75
2023/06/30 10:13:13;;;;;;;22.03;18.20;;;25.80;75.50;;;;;;5111809;28;20204;-76
2023/06/30 10:15:40;;;;;;;21.77;18.37;;;25.80;75.40;;;;;;5095037;28;20224;-77
2023/06/30 10:18:10;;;;;;;21.17;16.87;;;25.80;75.50;;;;;;5055232;28;20216;-74
2023/06/30 10:20:38;;;;;;;20.53;17.00;;;25.90;75.40;;;;;;5091533;28;20204;-75
2023/06/30 10:23:06;;;;;;;20.07;16.67;;;26.00;74.60;;;;;;5091743;28;20225;-74
2023/06/30 10:25:36;;;;;;;19.23;15.97;;;26.00;74.60;;;;;;5097159;28;20227;-74
2023/06/30 10:28:03;;;;;;;20.57;17.43;;;26.10;74.20;;;;;;5112009;28;20227;-75
2023/06/30 10:30:32;;;;;;;20.03;17.30;;;26.10;73.60;;;;;;5111838;28;20210;-74
2023/06/30 10:32:59;;;;;;;22.63;17.27;;;26.10;73.60;;;;;;5112078;28;20627;-74
2023/06/30 10:35:26;;;;;;;20.43;17.47;;;26.20;73.60;;;;;;5110247;28;20657;-76
2023/06/30 10:37:55;;;;;;;19.90;16.87;;;26.20;73.90;;;;;;5111802;28;20211;-77
2023/06/30 10:40:26;;;;;;;20.63;17.13;;;26.30;73.80;;;;;;5097056;28;20274;-77
2023/06/30 10:42:55;;;;;;;20.17;16.53;;;26.40;73.80;;;;;;5107485;28;20208;-75
2023/06/30 10:45:27;;;;;;;22.50;16.40;;;26.50;73.50;;;;;;5111745;28;20201;-74
2023/06/30 10:47:55;;;;;;;20.40;17.27;;;26.50;73.40;;;;;;5115050;28;20323;-77
2023/06/30 10:50:24;;;;;;;19.17;16.57;;;26.60;72.70;;;;;;5115359;28;20231;-75
2023/06/30 10:52:53;;;;;;;19.73;17.13;;;26.60;72.60;;;;;;5079299;28;20198;-78
2023/06/30 10:55:21;;;;;;;20.37;16.53;;;26.70;72.00;;;;;;5115588;28;20304;-75
2023/06/30 10:57:53;;;;;;;18.97;15.30;;;26.70;71.90;;;;;;5079203;28;20216;-75
2023/06/30 11:00:24;;;;;;;18.83;16.60;;;26.90;71.20;;;;;;5104263;28;20236;-77
2023/06/30 11:02:57;;;;;;;19.33;16.10;;;26.80;71.00;;;;;;5095463;28;20199;-74
2023/06/30 11:05:26;;;;;;;17.80;15.20;;;26.80;70.00;;;;;;5094836;28;20193;-77
2023/06/30 11:07:54;;;;;;;17.43;15.33;;;26.90;70.30;;;;;;5094923;28;20205;-75
2023/06/30 11:10:35;;;;;;;16.30;14.63;;;26.90;70.40;;;;;;5094896;28;20211;-76
2023/06/30 11:13:03;;;;;;;17.27;15.33;;;27.00;70.30;;;;;;5094866;28;20286;-77
2023/06/30 11:15:35;;;;;;;16.67;14.47;;;27.10;70.50;;;;;;5101581;28;20203;-74
2023/06/30 11:18:05;;;;;;;15.70;14.10;;;27.30;69.40;;;;;;5109580;28;20194;-75
2023/06/30 11:20:33;;;;;;;19.47;15.87;;;27.40;68.50;;;;;;5113575;28;20263;-74
2023/06/30 11:23:03;;;;;;;19.40;16.07;;;27.50;68.10;;;;;;5124422;28;20313;-74
2023/06/30 11:25:31;;;;;;;16.83;14.27;;;27.60;67.70;;;;;;5131701;28;20221;-77
2023/06/30 11:28:00;;;;;;;13.70;10.80;;;27.60;67.80;;;;;;5120581;28;20273;-74
2023/06/30 11:30:27;;;;;;;11.77;8.70;;;27.60;67.60;;;;;;5116349;28;20217;-74
2023/06/30 11:32:59;;;;;;;11.43;8.33;;;27.50;66.30;;;;;;5115519;28;20234;-76
2023/06/30 11:35:28;;;;;;;7.00;6.30;;;27.40;66.30;;;;;;5115438;28;20201;-76
2023/06/30 11:37:55;;;;;;;7.23;6.30;;;27.20;66.30;;;;;;5116062;28;20649;-75
2023/06/30 11:40:23;;;;;;;7.57;6.50;;;27.10;66.30;;;;;;5116118;28;20188;-78
2023/06/30 11:42:51;;;;;;;6.90;6.03;;;26.90;66.40;;;;;;5079144;28;20304;-76
2023/06/30 11:45:27;;;;;;;7.23;5.93;;;26.80;66.70;;;;;;5116022;28;20250;-78
2023/06/30 11:47:54;;;;;;;7.20;6.33;;;26.80;66.80;;;;;;5115578;28;20223;-75
2023/06/30 11:50:21;;;;;;;7.53;5.80;;;26.60;67.00;;;;;;5115849;28;20310;-76
2023/06/30 11:52:51;;;;;;;9.27;5.93;;;26.50;67.00;;;;;;5115641;28;20191;-77
2023/06/30 11:55:18;;;;;;;7.50;6.10;;;26.40;67.30;;;;;;5096290;28;20224;-77
2023/06/30 11:57:47;;;;;;;7.60;5.50;;;26.30;67.60;;;;;;5109484;28;20227;-77
2023/06/30 12:00:17;;;;;;;6.67;5.17;;;26.20;68.10;;;;;;5115796;28;20217;-77
2023/06/30 12:02:46;;;;;;;9.40;7.17;;;26.10;68.40;;;;;;5124394;22;20201;-75
2023/06/30 12:05:16;;;;;;;8.00;7.13;;;26.00;68.80;;;;;;5074880;28;20197;-74
2023/06/30 12:07:43;;;;;;;12.90;8.40;;;25.90;69.50;;;;;;5073984;28;20293;-73
2023/06/30 12:10:12;;;;;;;9.30;7.67;;;25.80;70.70;;;;;;5073982;28;20232;-77
2023/06/30 12:12:39;;;;;;;9.37;7.80;;;25.60;71.60;;;;;;5074257;28;20229;-76
2023/06/30 12:15:09;;;;;;;10.17;7.87;;;25.50;72.80;;;;;;5073613;28;20692;-75
2023/06/30 12:17:37;;;;;;;11.13;7.33;;;25.40;73.50;;;;;;5073120;28;20644;-75
2023/06/30 12:20:06;;;;;;;10.03;7.93;;;25.40;74.00;;;;;;5072092;28;20549;-76
2023/06/30 12:22:36;;;;;;;9.97;8.97;;;25.30;74.20;;;;;;5073504;28;20232;-75
2023/06/30 12:25:07;;;;;;;13.27;8.90;;;25.20;75.30;;;;;;5073699;28;20641;-75
2023/06/30 12:27:38;;;;;;;11.23;8.27;;;25.10;75.20;;;;;;5073800;28;20233;-75
2023/06/30 12:30:13;;;;;;;8.20;6.67;;;25.00;75.50;;;;;;5072948;28;20600;-75
2023/06/30 12:32:41;;;;;;;9.13;7.33;;;24.90;75.20;;;;;;5072793;28;20213;-74
2023/06/30 12:35:09;;;;;;;7.63;6.77;;;24.90;75.70;;;;;;5073323;28;20699;-75
2023/06/30 12:37:36;;;;;;;8.23;7.40;;;24.90;75.60;;;;;;5073080;28;20667;-74
2023/06/30 12:40:05;;;;;;;7.97;6.70;;;24.80;76.00;;;;;;5073143;28;20229;-75
2023/06/30 12:42:33;;;;;;;9.43;7.20;;;24.70;76.90;;;;;;5072954;28;20295;-75
2023/06/30 12:45:01;;;;;;;7.07;6.37;;;24.80;76.40;;;;;;5072897;28;20295;-74